Portada
METAR-TAF:

METAR-TAF

Aeropuertos :

Bonaire, Antillas Neerlandesas

Aeropuerto Internacional Flamingo

latitud: 12-09N, longitud: 068-17W, altitud: 6 m

Observación

El informe se hizo hace 1 hora y 0 minutos, a las 04:55 UTC
Viento 6 kt del este
Temperatura 28°C
Humedad 84%
Presión 1011 hPa
Visibilidad 10 km o más

METAR: TNCB 170455Z AUTO 08006KT 9999 NSC 28/25 Q1011

Hora: 01:55 (05:55 UTC)

Pronóstico

El informe se hizo hace 58 minutos, a las 04:57 UTC
Pronóstico válido del 17 a las 06 UTC al 18 a las 12 UTC
Viento 13 kt del este-noreste
Visibilidad 10 km o más
Nubes dispersas a una altura de 2000 ft
Probabilidad 30% :
Temporalmente
del 17 a las 06 UTC al 17 a las 10 UTC
Viento 15 kt del este con ráfagas de 25 kt
Visibilidad: 7000 m
Nubes dispersas a una altura de 1800 ft, Cumulonimbus.
chaparrones de lluvia

TAF: TNCB 170457Z 1706/1812 07013KT 9999 SCT020 PROB30 TEMPO 1706/1710 09015G25KT 7000 -SHRA SCT018CB

Observaciones y pronósticos meteorológicos de más de 4000 aeropuertos (mensajes METAR y TAF).

Los puntos amarillos y rojos representan las estaciones disponibles.

Ponga el ratón en el punto deseado para ver el nombre de la estación.

Haga clic para ver las observaciones y los pronósticos meteorológicos.

Para cambiar el mapa : haga clic en los botones verdes con una cruz de color negro para hacer un zoom, en el botón verde con un guión para alejar o en las flechas verdes para mapas adyacentes.


METAR-TAF: